Dades de l'estació automàtica Malniu (2.229 m)
Resum diari
17:00 TU| Temperatura mitjana | 17.9 °C | |
|---|---|---|
| Temperatura màxima | 23.0 °C | 14:06 TU |
| Temperatura mínima | 12.4 °C | 4:42 TU |
| Humitat relativa mitjana | 40% | |
| Precipitació acumulada | 0.0 mm | |
| Gruix de neu màxim | 0 cm | |
| Ratxa màxima del vent (6 m) | 17.6 km/h - 268º | 1:24 TU |
| Irradiació solar global | 25.1 MJ/m2 | |
El tram horari està expressat en Temps Universal (TU). Cal sumar una hora en horari d'hivern i dues en horari d'estiu per passar a l'hora oficial.
Malniu (2.229 m)
| Municipi | Meranges |
|---|---|
| Comarca | Cerdanya |
| Altitud | 2229 m |
| Data alta | 03.11.1999 |
| Estat actual | Operativa |
| Període TU |
TM °C |
TX °C |
TN °C |
HRM % |
PPT mm |
GN cm |
VVM (6 m) km/h |
DVM (6 m) graus |
VVX (6 m) km/h |
RS W/m2 |
|---|---|---|---|---|---|---|---|---|---|---|
| 00:00 - 00:30 | 13.6 | 13.9 | 13.3 | 62 | 0.0 | 0 | 2.9 | 300 | 8.6 | 0 |
| 00:30 - 01:00 | 14.0 | 14.5 | 13.5 | 58 | 0.0 | 0 | 3.2 | 290 | 12.6 | 0 |
| 01:00 - 01:30 | 14.3 | 14.6 | 14.0 | 54 | 0.0 | 0 | 6.1 | 279 | 17.6 | 0 |
| 01:30 - 02:00 | 13.7 | 14.4 | 13.2 | 55 | 0.0 | 0 | 4.3 | 289 | 10.4 | 0 |
| 02:00 - 02:30 | 13.2 | 13.6 | 12.7 | 52 | 0.0 | 0 | 4.7 | 298 | 12.6 | 0 |
| 02:30 - 03:00 | 12.9 | 13.3 | 12.7 | 49 | 0.0 | 0 | 2.2 | 305 | 9.0 | 0 |
| 03:00 - 03:30 | 13.0 | 13.4 | 12.7 | 47 | 0.0 | 0 | 3.6 | 356 | 10.4 | 0 |
| 03:30 - 04:00 | 13.5 | 14.0 | 12.9 | 41 | 0.0 | 0 | 4.3 | 346 | 10.8 | 0 |
| 04:00 - 04:30 | 13.4 | 13.7 | 13.1 | 40 | 0.0 | 0 | 2.9 | 348 | 9.0 | 0 |
| 04:30 - 05:00 | 12.9 | 13.2 | 12.4 | 43 | 0.0 | 0 | 2.5 | 326 | 7.6 | 0 |
| 05:00 - 05:30 | 13.1 | 13.6 | 12.5 | 44 | 0.0 | 0 | 3.2 | 344 | 10.8 | 0 |
| 05:30 - 06:00 | 13.9 | 14.7 | 13.1 | 43 | 0.0 | 0 | 2.5 | 4 | 7.2 | 45 |
| 06:00 - 06:30 | 15.6 | 16.4 | 14.7 | 41 | 0.0 | 0 | 1.1 | 59 | 5.0 | 131 |
| 06:30 - 07:00 | 16.7 | 17.0 | 16.5 | 39 | 0.0 | 0 | 2.5 | 98 | 5.8 | 234 |
| 07:00 - 07:30 | 17.0 | 17.4 | 16.6 | 40 | 0.0 | 0 | 4.3 | 99 | 8.6 | 342 |
| 07:30 - 08:00 | 18.2 | 18.3 | 17.6 | 40 | 0.0 | (s/d) | 2.5 | 126 | 7.2 | 446 |
| 08:00 - 08:30 | 18.6 | 19.0 | 18.0 | 44 | 0.0 | (s/d) | 1.8 | 150 | 7.2 | 544 |
| 08:30 - 09:00 | 18.5 | 19.3 | 17.9 | 43 | 0.0 | (s/d) | 2.9 | 196 | 7.6 | 631 |
| 09:00 - 09:30 | 19.3 | 20.3 | 18.7 | 34 | 0.0 | (s/d) | 2.9 | 198 | 7.2 | 707 |
| 09:30 - 10:00 | 19.3 | 20.0 | 18.6 | 41 | 0.0 | (s/d) | 3.2 | 207 | 9.0 | 769 |
| 10:00 - 10:30 | 20.2 | 20.7 | 19.5 | 37 | 0.0 | (s/d) | 2.9 | 187 | 9.0 | 825 |
| 10:30 - 11:00 | 20.7 | 21.1 | 20.4 | 39 | 0.0 | (s/d) | 3.2 | 164 | 10.8 | 866 |
| 11:00 - 11:30 | 21.2 | 21.7 | 20.6 | 39 | 0.0 | (s/d) | 4.0 | 130 | 13.0 | 890 |
| 11:30 - 12:00 | 20.8 | 21.6 | 20.2 | 36 | 0.0 | (s/d) | 4.3 | 204 | 12.2 | 903 |
| 12:00 - 12:30 | 21.4 | 21.9 | 21.0 | 30 | 0.0 | (s/d) | 4.0 | 169 | 15.1 | 903 |
| 12:30 - 13:00 | 22.0 | 22.4 | 21.4 | 32 | 0.0 | (s/d) | 4.0 | 177 | 13.0 | 880 |
| 13:00 - 13:30 | 21.7 | 22.1 | 21.2 | 32 | 0.0 | (s/d) | 5.0 | 152 | 14.8 | 846 |
| 13:30 - 14:00 | 22.3 | 22.6 | 21.6 | 29 | 0.0 | (s/d) | 4.3 | 194 | 13.0 | 796 |
| 14:00 - 14:30 | 22.2 | 23.0 | 21.9 | 29 | 0.0 | (s/d) | 4.7 | 203 | 14.4 | 734 |
| 14:30 - 15:00 | 22.4 | 23.0 | 21.9 | 30 | 0.0 | (s/d) | 4.0 | 199 | 12.6 | 657 |
| 15:00 - 15:30 | 22.1 | 22.7 | 21.8 | 31 | 0.0 | (s/d) | 4.3 | 197 | 14.0 | 571 |
| 15:30 - 16:00 | 21.9 | 22.2 | 21.3 | 32 | 0.0 | (s/d) | 4.0 | 211 | 11.9 | 475 |
| 16:00 - 16:30 | 21.4 | 21.7 | 21.1 | 32 | 0.0 | (s/d) | 3.2 | 212 | 9.7 | 372 |
| 16:30 - 17:00 | 21.1 | 21.5 | 20.8 | 33 | 0.0 | (s/d) | 3.2 | 211 | 9.0 | 270 |
| 17:00 - 17:30 | 20.2 | 20.9 | 18.8 | 37 | 0.0 | (s/d) | 1.8 | 273 | 5.4 | 125 |
Les dades en taronja només han passat un control de qualitat automàtic. Resta pendent la seva validació definitiva.